Time;durP1;ratioP1;P1;durP2;ratioP2;P2;SDS_P1;SDS_P2;PMS_P1;PMS_P2;Temp;Humidity;BMP_temperature;BMP_pressure;BME280_temperature;BME280_humidity;BME280_pressure;Samples;Min_cycle;Max_cycle;Signal;HPM_P1;HPM_P2
2023/07/31 00:00:12;;;;;;;9.73;2.00;;;;;;;23.13;100.00;99514.19;5051135;28;20202;-67
2023/07/31 00:02:39;;;;;;;9.38;2.00;;;;;;;23.14;100.00;99507.09;5062282;28;20202;-68
2023/07/31 00:05:06;;;;;;;6.90;1.60;;;;;;;22.86;100.00;99499.56;5071116;28;20210;-67
2023/07/31 00:07:34;;;;;;;13.43;3.03;;;;;;;22.84;100.00;99505.81;5071287;28;20203;-67
2023/07/31 00:10:02;;;;;;;8.88;2.03;;;;;;;22.60;100.00;99476.88;5035589;28;20202;-67
2023/07/31 00:12:29;;;;;;;12.25;2.25;;;;;;;22.76;100.00;99489.47;5070624;28;20280;-68
2023/07/31 00:14:55;;;;;;;9.93;2.15;;;;;;;22.58;100.00;99478.69;5070826;28;20202;-68
2023/07/31 00:17:22;;;;;;;10.50;2.17;;;;;;;22.58;100.00;99480.50;5070771;28;20218;-68
2023/07/31 00:19:50;;;;;;;11.02;2.30;;;;;;;22.47;100.00;99477.47;5070211;28;20199;-68
2023/07/31 00:22:17;;;;;;;11.70;2.28;;;;;;;22.29;100.00;99467.69;5070357;28;20230;-67
2023/07/31 00:24:45;;;;;;;13.38;2.30;;;;;;;22.18;100.00;99453.16;5071111;28;20198;-66
2023/07/31 00:27:12;;;;;;;8.13;1.90;;;;;;;22.20;100.00;99469.78;5070609;28;20207;-68
2023/07/31 00:29:39;;;;;;;11.40;2.22;;;;;;;22.11;100.00;99466.69;5061176;28;20199;-68
2023/07/31 00:32:06;;;;;;;8.60;2.05;;;;;;;21.96;100.00;99433.00;5050566;28;20212;-68
2023/07/31 00:34:33;;;;;;;8.98;1.88;;;;;;;21.97;100.00;99443.50;5015753;28;20203;-68
2023/07/31 00:37:00;;;;;;;12.00;2.25;;;;;;;22.08;100.00;99446.53;5048414;28;20225;-68
2023/07/31 00:39:27;;;;;;;11.65;2.38;;;;;;;22.12;100.00;99442.84;5051494;28;20200;-68
2023/07/31 00:41:55;;;;;;;12.57;2.45;;;;;;;22.28;100.00;99442.19;5050527;28;20284;-68
2023/07/31 00:44:22;;;;;;;10.05;2.22;;;;;;;22.35;100.00;99444.50;5050915;28;20258;-68
2023/07/31 00:46:48;;;;;;;9.93;2.00;;;;;;;22.38;100.00;99443.50;5050590;28;20353;-68
2023/07/31 00:49:16;;;;;;;10.50;2.13;;;;;;;22.56;100.00;99448.00;5015440;28;20663;-68
2023/07/31 00:51:42;;;;;;;11.25;2.17;;;;;;;22.59;100.00;99455.78;5051890;28;20199;-68
2023/07/31 00:54:10;;;;;;;9.68;1.92;;;;;;;22.80;100.00;99452.22;5050638;28;20195;-67
2023/07/31 00:56:37;;;;;;;12.52;2.58;;;;;;;22.83;100.00;99438.03;5053412;28;20292;-68
2023/07/31 00:59:05;;;;;;;13.07;2.50;;;;;;;22.85;100.00;99438.81;5024087;28;20195;-68
2023/07/31 01:01:32;;;;;;;11.98;2.13;;;;;;;22.65;100.00;99437.88;5073699;28;20214;-68
2023/07/31 01:03:59;;;;;;;7.20;1.63;;;;;;;22.69;100.00;99425.41;5073925;28;20195;-68
2023/07/31 01:06:34;;;;;;;9.18;1.95;;;;;;;22.82;100.00;99408.09;5074107;28;20207;-68
2023/07/31 01:09:04;;;;;;;12.60;2.42;;;;;;;22.96;100.00;99441.81;5073467;28;20205;-67
2023/07/31 01:11:34;;;;;;;10.88;2.13;;;;;;;22.90;100.00;99452.69;5073781;28;20633;-66
2023/07/31 01:14:01;;;;;;;10.48;2.15;;;;;;;22.81;100.00;99455.72;5073752;28;20194;-67
2023/07/31 01:16:29;;;;;;;11.15;2.30;;;;;;;22.81;100.00;99451.31;5073288;28;20222;-67
2023/07/31 01:18:56;;;;;;;11.52;2.15;;;;;;;22.84;100.00;99450.28;5073227;28;20264;-68
2023/07/31 01:21:59;;;;;;;9.48;2.30;;;;;;;22.60;100.00;99408.16;5074002;28;20213;-66
2023/07/31 01:24:34;;;;;;;8.95;1.83;;;;;;;22.91;100.00;99442.03;5073844;28;20252;-67
2023/07/31 01:27:09;;;;;;;11.20;2.10;;;;;;;22.93;100.00;99442.81;5073601;28;20202;-67
2023/07/31 01:29:43;;;;;;;13.00;2.38;;;;;;;23.08;100.00;99465.91;5073197;28;20698;-67
2023/07/31 01:32:11;;;;;;;17.05;2.83;;;;;;;23.06;100.00;99477.50;5073616;28;20271;-68
2023/07/31 01:34:40;;;;;;;14.07;2.50;;;;;;;23.08;100.00;99488.88;5073604;28;20208;-68
2023/07/31 01:37:06;;;;;;;13.35;2.58;;;;;;;22.99;100.00;99479.56;5062583;28;20227;-67
2023/07/31 01:39:33;;;;;;;13.70;2.42;;;;;;;22.94;100.00;99481.53;5017559;28;20230;-67
2023/07/31 01:42:00;;;;;;;15.02;2.78;;;;;;;22.94;100.00;99481.53;5053311;28;20207;-67
2023/07/31 01:44:28;;;;;;;16.85;2.88;;;;;;;22.88;100.00;99496.81;5053631;28;20227;-67
2023/07/31 01:46:55;;;;;;;11.88;2.47;;;;;;;22.93;100.00;99477.19;5073149;28;20195;-67
2023/07/31 01:49:22;;;;;;;9.95;2.08;;;;;;;22.99;100.00;99482.19;5072758;28;20194;-68
2023/07/31 01:51:48;;;;;;;8.98;1.88;;;;;;;23.11;100.00;99494.03;5054723;28;20210;-68
2023/07/31 01:54:15;;;;;;;11.85;2.35;;;;;;;23.10;100.00;99490.53;5073228;28;20203;-67
2023/07/31 01:56:42;;;;;;;13.38;2.53;;;;;;;23.14;100.00;99485.94;5037269;28;20229;-68
2023/07/31 01:59:09;;;;;;;12.23;2.30;;;;;;;23.22;100.00;99491.75;5072410;28;20207;-68
2023/07/31 02:01:37;;;;;;;15.60;2.72;;;;;;;23.28;100.00;99491.47;5054421;28;20214;-68
2023/07/31 02:04:04;;;;;;;14.80;2.88;;;;;;;23.14;100.00;99493.88;5072655;28;20206;-68
2023/07/31 02:06:31;;;;;;;15.35;2.85;;;;;;;23.20;100.00;99501.53;5053544;28;20198;-68
2023/07/31 02:08:58;;;;;;;16.02;2.85;;;;;;;23.15;100.00;99504.38;5072199;28;20634;-67
2023/07/31 02:11:25;;;;;;;11.73;2.30;;;;;;;23.18;100.00;99500.75;5072754;28;20206;-68
2023/07/31 02:13:51;;;;;;;15.07;2.63;;;;;;;23.24;100.00;99508.41;5073059;28;20206;-68
2023/07/31 02:16:18;;;;;;;13.90;2.67;;;;;;;23.28;100.00;99511.75;5055513;28;20277;-68
2023/07/31 02:18:46;;;;;;;15.50;2.75;;;;;;;23.43;100.00;99519.91;5052684;28;20203;-68
2023/07/31 02:21:13;;;;;;;14.05;2.70;;;;;;;23.26;100.00;99513.63;5050452;28;20191;-68
2023/07/31 02:23:40;;;;;;;13.73;2.45;;;;;;;23.33;100.00;99515.06;5052666;28;20210;-68
2023/07/31 02:26:06;;;;;;;14.05;2.60;;;;;;;23.29;100.00;99516.13;5052497;28;20211;-67
2023/07/31 02:28:33;;;;;;;14.85;2.55;;;;;;;23.19;100.00;99513.03;5052532;28;20195;-68
2023/07/31 02:31:00;;;;;;;14.35;2.67;;;;;;;23.04;100.00;99490.81;5052164;28;20191;-68
2023/07/31 02:33:27;;;;;;;13.77;2.67;;;;;;;23.22;100.00;99510.28;5052154;28;20202;-68
2023/07/31 02:35:55;;;;;;;15.13;2.72;;;;;;;23.33;100.00;99510.59;5052257;28;20219;-68
2023/07/31 02:38:22;;;;;;;15.07;2.80;;;;;;;23.26;100.00;99498.59;5052209;28;20203;-68
2023/07/31 02:40:49;;;;;;;14.30;2.78;;;;;;;23.33;100.00;99499.19;5017273;28;20207;-68
2023/07/31 02:43:15;;;;;;;14.07;2.53;;;;;;;23.29;100.00;99482.59;5051981;28;20227;-68
2023/07/31 02:45:42;;;;;;;13.45;2.53;;;;;;;23.28;100.00;99493.25;5063517;28;20639;-68
2023/07/31 02:48:09;;;;;;;11.68;2.22;;;;;;;23.18;100.00;99480.44;5071711;28;20263;-67
2023/07/31 02:50:36;;;;;;;9.80;2.03;;;;;;;22.77;100.00;99420.63;5071931;28;20198;-68
2023/07/31 02:53:04;;;;;;;12.68;2.38;;;;;;;23.13;100.00;99493.00;5072034;28;20210;-68
2023/07/31 02:55:31;;;;;;;14.25;2.45;;;;;;;23.24;100.00;99489.88;5071520;28;20206;-68
2023/07/31 02:57:58;;;;;;;12.98;2.47;;;;;;;23.19;100.00;99487.44;5072013;28;20569;-68
2023/07/31 03:00:24;;;;;;;12.32;2.22;;;;;;;23.25;100.00;99496.03;5072015;28;20343;-68
2023/07/31 03:02:51;;;;;;;12.48;2.47;;;;;;;23.09;100.00;99494.06;5036810;28;20198;-68
2023/07/31 03:05:18;;;;;;;13.52;2.47;;;;;;;23.16;100.00;99498.16;5071020;28;20290;-67
2023/07/31 03:07:45;;;;;;;12.57;2.35;;;;;;;23.06;100.00;99494.22;5071859;28;20642;-67
2023/07/31 03:10:13;;;;;;;12.50;2.67;;;;;;;23.12;100.00;99495.72;5071594;28;20195;-67
2023/07/31 03:12:40;;;;;;;11.00;2.10;;;;;;;23.04;100.00;99498.75;5071219;28;20199;-67
2023/07/31 03:15:08;;;;;;;10.57;2.10;;;;;;;22.94;100.00;99481.53;5071255;28;20203;-67
2023/07/31 03:17:35;;;;;;;8.15;1.77;;;;;;;22.83;100.00;99473.22;5036418;28;20616;-67
2023/07/31 03:20:02;;;;;;;9.48;2.45;;;;;;;22.71;100.00;99479.94;5071369;28;20779;-67
2023/07/31 03:22:29;;;;;;;9.82;1.92;;;;;;;22.85;100.00;99481.09;5071647;28;20661;-67
2023/07/31 03:24:55;;;;;;;9.57;1.95;;;;;;;22.86;100.00;99491.63;5069811;28;20210;-67
2023/07/31 03:27:23;;;;;;;9.93;2.05;;;;;;;22.84;100.00;99485.53;5070958;28;20210;-67
2023/07/31 03:29:51;;;;;;;11.68;2.25;;;;;;;22.80;100.00;99489.22;5071447;28;20202;-67
2023/07/31 03:32:18;;;;;;;12.07;2.22;;;;;;;22.71;100.00;99493.16;5035904;28;20661;-68
2023/07/31 03:34:45;;;;;;;12.20;2.35;;;;;;;22.75;100.00;99496.53;5059436;28;20203;-68
2023/07/31 03:37:11;;;;;;;13.68;2.65;;;;;;;22.72;100.00;99492.22;5016050;28;20689;-68
2023/07/31 03:39:38;;;;;;;8.73;1.92;;;;;;;22.73;100.00;99495.72;5016495;28;20203;-68
2023/07/31 03:42:06;;;;;;;9.73;2.03;;;;;;;22.65;100.00;99476.69;5051154;28;20655;-68
2023/07/31 03:44:34;;;;;;;12.02;2.35;;;;;;;22.76;100.00;99492.09;5052004;28;20227;-68
2023/07/31 03:47:01;;;;;;;13.57;2.45;;;;;;;22.74;100.00;99489.50;5016022;28;20589;-68
2023/07/31 03:49:28;;;;;;;11.48;2.53;;;;;;;22.75;100.00;99491.22;5051105;28;20204;-68
2023/07/31 03:51:55;;;;;;;8.73;1.90;;;;;;;22.75;100.00;99491.22;5016126;28;20195;-68
2023/07/31 03:54:22;;;;;;;11.20;2.20;;;;;;;22.81;100.00;99490.09;5051286;28;20198;-67
2023/07/31 03:56:49;;;;;;;10.52;2.15;;;;;;;22.86;100.00;99473.13;5051157;28;20226;-67
2023/07/31 03:59:16;;;;;;;8.55;1.90;;;;;;;23.01;100.00;99495.38;5051186;28;20917;-68
2023/07/31 04:01:44;;;;;;;8.38;1.92;;;;;;;23.16;100.00;99514.03;5051354;28;20558;-68
2023/07/31 04:04:10;;;;;;;11.55;2.50;;;;;;;23.26;100.00;99511.81;5025745;28;20203;-68
2023/07/31 04:06:37;;;;;;;7.45;1.58;;;;;;;23.29;100.00;99513.47;5035718;28;20199;-68
2023/07/31 04:09:04;;;;;;;9.27;2.05;;;;;;;23.47;100.00;99513.50;5070952;28;20217;-68
2023/07/31 04:11:31;;;;;;;12.10;2.85;;;;;;;23.53;100.00;99513.25;5071017;28;20205;-68
2023/07/31 04:13:58;;;;;;;9.18;2.00;;;;;;;23.64;100.00;99525.97;5059526;28;20204;-68
2023/07/31 04:16:24;;;;;;;10.75;2.60;;;;;;;23.72;100.00;99531.78;5063231;28;20218;-67
2023/07/31 04:18:52;;;;;;;10.55;2.22;;;;;;;23.70;100.00;99528.31;5071042;28;20561;-67
2023/07/31 04:21:19;;;;;;;10.00;2.00;;;;;;;23.52;100.00;99516.81;5069514;28;20210;-68
2023/07/31 04:23:46;;;;;;;10.90;2.45;;;;;;;23.75;100.00;99542.22;5070827;28;20264;-68
2023/07/31 04:26:13;;;;;;;13.82;2.88;;;;;;;23.66;100.00;99529.38;5070680;28;20199;-68
2023/07/31 04:28:39;;;;;;;7.60;1.60;;;;;;;23.75;100.00;99544.84;5071079;28;20202;-68
2023/07/31 04:31:06;;;;;;;7.40;1.60;;;;;;;23.68;100.00;99544.28;5061571;28;20260;-67
2023/07/31 04:33:33;;;;;;;9.35;1.95;;;;;;;23.65;100.00;99540.94;5074916;28;20267;-67
2023/07/31 04:36:01;;;;;;;8.63;1.90;;;;;;;23.61;100.00;99550.81;5056111;28;20314;-68
2023/07/31 04:38:28;;;;;;;8.88;2.00;;;;;;;23.62;100.00;99533.97;5074539;28;20654;-67
2023/07/31 04:40:54;;;;;;;6.95;1.55;;;;;;;23.61;100.00;99547.28;5072772;28;20583;-67
2023/07/31 04:43:21;;;;;;;9.60;1.85;;;;;;;23.66;100.00;99540.84;5031649;28;20196;-67
2023/07/31 04:45:49;;;;;;;11.90;2.33;;;;;;;23.91;100.00;99547.63;5057293;28;20662;-66
2023/07/31 04:48:16;;;;;;;7.13;1.70;;;;;;;23.82;100.00;99554.22;5074567;28;20210;-68
2023/07/31 04:50:43;;;;;;;11.93;2.40;;;;;;;23.69;100.00;99545.13;5074402;28;20202;-68
2023/07/31 04:53:11;;;;;;;8.45;2.00;;;;;;;24.01;100.00;99557.69;5072059;28;20669;-68
2023/07/31 04:55:38;;;;;;;8.25;1.83;;;;;;;24.12;100.00;99560.69;5054598;28;20199;-68
2023/07/31 04:58:05;;;;;;;9.00;1.92;;;;;;;24.19;100.00;99575.38;5054245;28;20230;-67
2023/07/31 05:00:32;;;;;;;12.35;2.42;;;;;;;24.16;100.00;99569.38;5063332;28;20210;-68
2023/07/31 05:02:58;;;;;;;10.18;2.13;;;;;;;24.06;100.00;99568.94;5073733;28;20210;-69
2023/07/31 05:05:25;;;;;;;9.30;2.00;;;;;;;24.10;100.00;99570.50;5054294;28;20204;-68
2023/07/31 05:07:52;;;;;;;7.38;2.03;;;;;;;24.34;100.00;99588.81;5054066;28;20214;-68
2023/07/31 05:10:20;;;;;;;9.82;2.03;;;;;;;24.37;100.00;99584.22;5039795;28;20212;-68
2023/07/31 05:12:47;;;;;;;8.70;1.95;;;;;;;24.46;100.00;99581.13;5043070;28;20225;-68
2023/07/31 05:15:13;;;;;;;7.60;1.80;;;;;;;24.30;100.00;99534.25;5044243;28;20230;-68
2023/07/31 05:17:40;;;;;;;10.15;2.08;;;;;;;24.76;100.00;99589.31;5046165;28;20231;-68
2023/07/31 05:20:09;;;;;;;10.85;2.20;;;;;;;24.68;100.00;99587.06;5053297;28;20204;-68
2023/07/31 05:22:35;;;;;;;8.73;1.90;;;;;;;24.76;100.00;99593.78;5023243;28;20206;-68
2023/07/31 05:25:02;;;;;;;10.15;2.25;;;;;;;24.89;100.00;99600.22;5062243;28;20211;-68
2023/07/31 05:27:31;;;;;;;9.48;1.88;;;;;;;24.87;100.00;99613.53;5041615;28;20299;-68
2023/07/31 05:29:58;;;;;;;8.15;1.70;;;;;;;24.81;100.00;99608.53;5064749;28;20211;-68
2023/07/31 05:32:24;;;;;;;12.27;2.33;;;;;;;24.89;100.00;99610.81;5053363;28;20199;-68
2023/07/31 05:34:52;;;;;;;10.30;2.28;;;;;;;24.86;100.00;99611.84;5017543;28;20222;-68
2023/07/31 05:37:19;;;;;;;11.77;2.22;;;;;;;24.71;100.00;99599.31;5051153;28;20219;-70
2023/07/31 05:39:46;;;;;;;12.00;2.28;;;;;;;24.81;100.00;99612.97;5040944;28;20211;-70
2023/07/31 05:42:12;;;;;;;7.50;1.75;;;;;;;24.73;100.00;99613.34;5032197;28;20612;-71
2023/07/31 05:44:41;;;;;;;8.68;1.85;;;;;;;24.71;100.00;99607.28;5037331;28;20234;-67
2023/07/31 05:47:07;;;;;;;11.23;2.22;;;;;;;24.39;100.00;99602.72;5045679;28;20222;-68
2023/07/31 05:49:34;;;;;;;11.38;2.22;;;;;;;24.02;100.00;99596.50;5052194;28;20636;-67
2023/07/31 05:52:01;;;;;;;12.05;2.35;;;;;;;23.93;100.00;99596.94;5017521;28;20226;-68
2023/07/31 05:54:28;;;;;;;10.75;2.05;;;;;;;23.75;100.00;99589.88;5017203;28;20210;-67
2023/07/31 05:56:55;;;;;;;15.10;2.63;;;;;;;23.56;100.00;99581.03;5052132;28;20230;-67
2023/07/31 05:59:22;;;;;;;9.43;2.00;;;;;;;23.59;100.00;99586.19;5049971;28;20206;-69
2023/07/31 06:01:50;;;;;;;11.00;2.33;;;;;;;24.07;100.00;99593.66;5051823;28;20218;-69
2023/07/31 06:04:16;;;;;;;14.77;2.65;;;;;;;24.24;100.00;99598.16;5051949;28;20594;-67
2023/07/31 06:06:43;;;;;;;13.45;2.97;;;;;;;24.18;100.00;99601.97;5051848;28;20196;-68
2023/07/31 06:09:10;;;;;;;13.40;2.35;;;;;;;24.35;100.00;99609.09;5051950;28;20207;-67
2023/07/31 06:11:38;;;;;;;15.88;2.85;;;;;;;24.25;100.00;99602.53;5051628;28;20257;-67
2023/07/31 06:14:05;;;;;;;13.30;2.90;;;;;;;24.22;100.00;99592.94;5051996;28;20333;-67
2023/07/31 06:16:31;;;;;;;12.10;2.28;;;;;;;24.17;100.00;99581.69;5049799;28;20206;-67
2023/07/31 06:18:59;;;;;;;12.63;2.35;;;;;;;24.39;100.00;99600.06;5039823;28;20234;-67
2023/07/31 06:21:26;;;;;;;13.73;2.42;;;;;;;24.32;100.00;99607.47;5032854;28;20203;-67
2023/07/31 06:23:53;;;;;;;12.98;2.28;;;;;;;24.22;100.00;99610.63;5016378;28;20207;-68
2023/07/31 06:26:20;;;;;;;11.07;2.55;;;;;;;24.23;100.00;99605.25;5044193;28;20214;-69
2023/07/31 06:28:47;;;;;;;12.88;2.45;;;;;;;24.24;100.00;99596.38;5051235;28;20686;-70
2023/07/31 06:31:13;;;;;;;13.52;2.33;;;;;;;24.45;100.00;99618.31;5051635;28;20265;-69
2023/07/31 06:33:40;;;;;;;13.52;2.72;;;;;;;24.86;100.00;99617.16;5051491;28;20203;-67
2023/07/31 06:36:08;;;;;;;11.65;2.20;;;;;;;25.03;100.00;99608.31;5051774;28;20203;-68
2023/07/31 06:38:35;;;;;;;11.38;2.25;;;;;;;25.29;100.00;99623.75;5051468;28;20302;-68
2023/07/31 06:41:02;;;;;;;10.57;2.25;;;;;;;25.64;100.00;99638.72;5051497;28;20671;-67
2023/07/31 06:43:29;;;;;;;10.85;2.10;;;;;;;25.87;100.00;99618.84;5051207;28;20674;-68
2023/07/31 06:45:55;;;;;;;11.07;2.15;;;;;;;26.40;100.00;99650.44;5051234;28;20260;-67
2023/07/31 06:48:22;;;;;;;11.23;2.78;;;;;;;26.24;100.00;99630.97;5049434;28;20206;-68
2023/07/31 06:50:49;;;;;;;9.75;2.05;;;;;;;26.44;100.00;99651.13;5050789;28;20206;-68
2023/07/31 06:53:17;;;;;;;11.13;2.50;;;;;;;26.43;100.00;99636.97;5051359;28;20983;-68
2023/07/31 06:55:44;;;;;;;7.85;1.75;;;;;;;25.90;100.00;99647.91;5051057;28;20215;-68
2023/07/31 06:58:10;;;;;;;7.75;1.75;;;;;;;26.04;100.00;99647.16;5040563;28;20297;-68
2023/07/31 07:00:37;;;;;;;11.75;2.25;;;;;;;25.85;100.00;99647.31;5010606;28;20204;-67
2023/07/31 07:03:04;;;;;;;6.05;1.58;;;;;;;26.02;100.00;99636.59;5051201;28;20199;-67
2023/07/31 07:05:31;;;;;;;8.27;1.75;;;;;;;26.51;100.00;99668.44;5051134;28;20207;-68
2023/07/31 07:07:57;;;;;;;8.38;1.80;;;;;;;26.48;100.00;99604.78;5032411;28;20588;-68
2023/07/31 07:10:26;;;;;;;11.43;2.67;;;;;;;26.96;100.00;99667.63;5015670;28;20210;-68
2023/07/31 07:12:55;;;;;;;8.65;2.25;;;;;;;26.86;100.00;99677.94;5051046;28;20200;-68
2023/07/31 07:15:22;;;;;;;10.00;1.90;;;;;;;27.04;100.00;99666.22;5050794;28;20670;-69
2023/07/31 07:17:48;;;;;;;7.93;1.60;;;;;;;26.88;100.00;99677.84;5047209;28;20227;-68
2023/07/31 07:20:15;;;;;;;11.82;2.30;;;;;;;26.69;100.00;99677.16;5048607;28;20207;-66
2023/07/31 07:22:42;;;;;;;10.57;2.40;;;;;;;27.11;100.00;99680.88;5050739;28;20203;-67
2023/07/31 07:25:10;;;;;;;8.38;1.88;;;;;;;27.53;100.00;99676.63;5050661;28;20282;-68
2023/07/31 07:27:38;;;;;;;9.30;1.90;;;;;;;27.72;100.00;99671.88;5050803;28;20210;-67
2023/07/31 07:30:05;;;;;;;9.55;1.90;;;;;;;27.90;100.00;99692.06;5050406;28;20603;-67
2023/07/31 07:32:32;;;;;;;8.60;2.00;;;;;;;27.89;100.00;99682.38;5015622;28;20207;-67
2023/07/31 07:34:59;;;;;;;7.72;1.75;;;;;;;27.68;100.00;99670.38;5050749;28;20199;-68
2023/07/31 07:37:26;;;;;;;7.75;1.85;;;;;;;27.64;100.00;99691.97;5047014;28;20224;-68
2023/07/31 07:39:53;;;;;;;6.95;1.63;;;;;;;28.01;100.00;99694.91;5045152;28;20207;-67
2023/07/31 07:42:19;;;;;;;11.15;2.05;;;;;;;28.26;100.00;99696.06;5041737;28;20207;-67
2023/07/31 07:44:47;;;;;;;9.10;2.00;;;;;;;28.02;100.00;99701.97;5031352;28;20722;-67
2023/07/31 07:47:14;;;;;;;8.93;2.22;;;;;;;27.72;100.00;99701.19;5033248;28;20200;-68
2023/07/31 07:49:41;;;;;;;10.65;2.13;;;;;;;27.29;100.00;99704.72;5030090;28;20234;-68
2023/07/31 07:52:08;;;;;;;8.30;1.75;;;;;;;27.17;100.00;99705.44;5042504;28;20337;-67
2023/07/31 07:54:35;;;;;;;6.53;1.55;;;;;;;27.31;100.00;99708.13;5032759;28;20986;-67
2023/07/31 07:57:01;;;;;;;9.02;1.83;;;;;;;27.33;100.00;99708.88;5049446;28;20204;-67
2023/07/31 07:59:28;;;;;;;6.90;1.70;;;;;;;27.78;100.00;99699.97;5045283;28;20219;-68
2023/07/31 08:01:57;;;;;;;9.45;2.03;;;;;;;27.74;100.00;99690.44;5043601;28;20203;-68
2023/07/31 08:04:24;;;;;;;12.35;2.38;;;;;;;28.10;100.00;99692.66;5034817;28;20250;-68
2023/07/31 08:06:50;;;;;;;10.90;2.22;;;;;;;28.17;100.00;99705.50;5034536;28;20265;-69
2023/07/31 08:09:17;;;;;;;8.35;2.38;;;;;;;28.00;100.00;99669.19;5046629;28;20210;-74
2023/07/31 08:11:44;;;;;;;11.55;2.28;;;;;;;28.40;100.00;99706.69;5045213;28;20192;-67
2023/07/31 08:14:11;;;;;;;8.90;2.17;;;;;;;28.63;100.00;99715.91;5039676;28;20210;-67
2023/07/31 08:16:37;;;;;;;7.30;1.88;;;;;;;28.52;100.00;99711.25;5035499;28;20200;-67
2023/07/31 08:19:06;;;;;;;7.72;1.70;;;;;;;28.59;100.00;99709.91;5039054;28;20226;-68
2023/07/31 08:21:32;;;;;;;9.40;2.35;;;;;;;28.66;100.00;99697.88;5049757;28;20257;-68
2023/07/31 08:23:59;;;;;;;8.77;1.95;;;;;;;28.84;100.00;99718.06;5050093;28;20624;-68
2023/07/31 08:26:26;;;;;;;8.68;1.90;;;;;;;28.77;100.00;99718.56;5049947;28;20612;-67
2023/07/31 08:28:53;;;;;;;6.95;1.60;;;;;;;28.31;100.00;99710.81;5050112;28;20206;-68
2023/07/31 08:31:20;;;;;;;7.53;1.60;;;;;;;28.46;100.00;99717.00;5031169;28;20203;-68
2023/07/31 08:33:47;;;;;;;11.38;2.10;;;;;;;28.66;100.00;99665.00;5049708;28;20693;-67
2023/07/31 08:36:15;;;;;;;11.77;2.20;;;;;;;28.65;100.00;99696.16;5031287;28;20203;-67
2023/07/31 08:38:41;;;;;;;8.55;2.00;;;;;;;29.09;99.92;99705.75;5049797;28;20233;-68
2023/07/31 08:41:08;;;;;;;11.10;2.70;;;;;;;28.69;94.95;99711.03;5049858;28;20199;-66
2023/07/31 08:43:36;;;;;;;7.38;1.52;;;;;;;28.31;99.47;99716.16;5045857;28;20326;-67
2023/07/31 08:46:03;;;;;;;12.32;2.80;;;;;;;28.21;100.00;99711.50;5049569;28;20213;-67
2023/07/31 08:48:31;;;;;;;8.52;1.77;;;;;;;27.65;100.00;99715.84;5030948;28;20211;-68
2023/07/31 08:50:58;;;;;;;9.27;2.00;;;;;;;27.17;100.00;99700.09;5047343;28;20253;-67
2023/07/31 08:53:26;;;;;;;6.00;1.60;;;;;;;26.89;100.00;99712.38;5049922;28;20211;-68
2023/07/31 08:55:59;;;;;;;10.15;2.35;;;;;;;27.10;100.00;99711.13;5030866;28;20210;-67
2023/07/31 08:58:28;;;;;;;4.47;1.20;;;;;;;26.96;100.00;99676.47;5040511;28;20732;-68
2023/07/31 09:00:56;;;;;;;5.75;1.50;;;;;;;27.34;100.00;99707.94;5049313;28;20265;-68
2023/07/31 09:03:25;;;;;;;8.85;1.95;;;;;;;27.74;100.00;99704.63;5049497;28;20203;-68
2023/07/31 09:05:52;;;;;;;4.82;1.38;;;;;;;28.06;100.00;99714.16;5047600;28;20678;-69
2023/07/31 09:08:22;;;;;;;7.20;1.63;;;;;;;28.44;99.95;99708.22;5049119;28;20594;-68
2023/07/31 09:10:50;;;;;;;5.90;1.45;;;;;;;28.56;100.00;99718.09;5050279;28;20241;-70
2023/07/31 09:13:17;;;;;;;9.20;1.90;;;;;;;28.84;98.60;99717.19;5049478;28;20235;-68
2023/07/31 09:15:46;;;;;;;8.40;2.00;;;;;;;29.13;94.18;99717.94;5049660;28;20204;-68
2023/07/31 09:18:14;;;;;;;6.18;1.55;;;;;;;29.03;93.17;99713.22;5053414;28;20281;-67
2023/07/31 09:20:40;;;;;;;8.75;1.77;;;;;;;28.74;94.53;99703.59;5053499;28;20659;-69
2023/07/31 09:23:09;;;;;;;5.40;1.40;;;;;;;28.65;93.62;99722.84;5053266;28;20653;-68
2023/07/31 09:25:36;;;;;;;7.57;2.58;;;;;;;28.66;93.30;99713.88;5053150;28;20199;-68
2023/07/31 09:28:05;;;;;;;7.72;1.85;;;;;;;28.43;96.68;99709.19;5053033;28;20199;-68
2023/07/31 09:30:44;;;;;;;11.63;2.22;;;;;;;28.47;96.50;99716.00;5053043;28;20206;-69
2023/07/31 09:33:11;;;;;;;7.50;1.73;;;;;;;28.45;96.94;99716.13;5053097;28;20602;-68
2023/07/31 09:35:40;;;;;;;7.30;1.88;;;;;;;28.53;95.66;99712.97;5053492;28;20199;-68
2023/07/31 09:38:09;;;;;;;9.38;1.88;;;;;;;28.73;93.26;99715.22;5053049;28;20609;-69
2023/07/31 09:40:37;;;;;;;7.30;1.67;;;;;;;28.57;94.86;99717.16;5052927;28;20222;-67
2023/07/31 09:43:07;;;;;;;10.27;2.05;;;;;;;28.58;95.84;99716.19;5052772;28;20643;-69
2023/07/31 09:45:35;;;;;;;6.47;1.55;;;;;;;28.89;90.91;99707.94;5052998;28;20231;-75
2023/07/31 09:48:02;;;;;;;12.35;2.33;;;;;;;29.38;87.90;99712.69;5050738;28;20230;-73
2023/07/31 09:50:30;;;;;;;7.57;1.67;;;;;;;29.24;90.85;99710.91;5048143;28;20283;-75
2023/07/31 09:52:57;;;;;;;7.35;1.70;;;;;;;29.48;87.44;99708.41;5042463;28;20242;-74
2023/07/31 09:55:25;;;;;;;7.50;1.67;;;;;;;29.65;86.29;99713.44;5046664;28;20211;-74
2023/07/31 09:57:51;;;;;;;8.43;1.77;;;;;;;29.83;86.06;99714.84;5051683;28;20269;-74
2023/07/31 10:00:24;;;;;;;9.07;1.92;;;;;;;30.02;84.37;99706.41;5052608;28;20211;-74
2023/07/31 10:02:52;;;;;;;7.25;1.75;;;;;;;30.11;84.24;99716.44;5052379;28;20203;-75
2023/07/31 10:05:20;;;;;;;6.45;1.67;;;;;;;30.05;83.38;99705.31;5048270;28;20203;-73
2023/07/31 10:07:54;;;;;;;7.72;1.83;;;;;;;29.68;85.05;99715.91;5043186;28;20210;-73
2023/07/31 10:10:22;;;;;;;6.97;1.75;;;;;;;29.58;86.41;99714.81;5049824;28;20689;-74
2023/07/31 10:12:50;;;;;;;9.57;2.15;;;;;;;29.95;85.34;99719.38;5041965;28;20239;-75
2023/07/31 10:15:18;;;;;;;10.25;2.17;;;;;;;29.37;88.12;99722.50;5048213;28;20694;-73
2023/07/31 10:17:48;;;;;;;8.88;1.92;;;;;;;29.45;87.35;99709.47;5051796;28;20210;-73
2023/07/31 10:20:16;;;;;;;8.50;1.80;;;;;;;29.72;86.80;99716.53;5050629;28;20594;-73
2023/07/31 10:22:45;;;;;;;8.45;2.08;;;;;;;29.27;87.42;99696.53;5041753;28;20229;-73
2023/07/31 10:25:12;;;;;;;6.38;1.52;;;;;;;29.05;91.06;99715.78;5050007;28;20268;-78
2023/07/31 10:27:40;;;;;;;8.70;1.90;;;;;;;29.33;88.97;99704.97;5051052;28;20202;-77
2023/07/31 10:30:10;;;;;;;9.70;2.00;;;;;;;29.62;86.61;99719.00;5051907;28;20298;-76
2023/07/31 10:32:39;;;;;;;6.28;1.55;;;;;;;30.20;82.25;99717.63;5051573;28;20207;-77
2023/07/31 10:35:09;;;;;;;7.60;1.73;;;;;;;30.47;83.00;99710.28;5051882;28;20195;-76
2023/07/31 10:37:39;;;;;;;7.95;1.77;;;;;;;30.83;80.07;99710.28;5051881;28;20199;-75
2023/07/31 10:40:07;;;;;;;8.57;1.90;;;;;;;30.98;77.08;99705.63;5051728;28;20257;-76
2023/07/31 10:42:38;;;;;;;10.48;2.28;;;;;;;30.73;78.93;99695.84;5051757;28;20257;-76
2023/07/31 10:45:07;;;;;;;8.30;2.00;;;;;;;30.53;80.75;99712.53;5051864;28;20309;-77
2023/07/31 10:47:38;;;;;;;6.60;1.63;;;;;;;30.37;83.64;99687.81;5052001;28;20191;-77
2023/07/31 10:50:19;;;;;;;10.18;1.95;;;;;;;30.81;82.70;99709.53;5051764;28;20368;-76
2023/07/31 10:52:50;;;;;;;9.75;1.92;;;;;;;31.36;78.27;99697.34;5051514;28;20222;-71
2023/07/31 10:55:25;;;;;;;9.98;2.08;;;;;;;31.10;77.18;99650.28;5051393;28;20203;-71
2023/07/31 10:57:52;;;;;;;7.03;1.65;;;;;;;31.46;76.38;99703.75;5051332;28;20214;-69
2023/07/31 11:00:21;;;;;;;9.43;1.85;;;;;;;31.37;78.10;99696.38;5052089;28;20670;-70
2023/07/31 11:02:58;;;;;;;13.65;2.58;;;;;;;31.52;79.20;99705.09;5051779;28;20226;-68
2023/07/31 11:05:42;;;;;;;10.27;2.08;;;;;;;31.13;77.13;99693.75;5051744;28;20226;-70
2023/07/31 11:08:13;;;;;;;7.55;1.70;;;;;;;30.78;79.69;99693.72;5051543;28;20613;-70
2023/07/31 11:10:40;;;;;;;6.88;1.63;;;;;;;30.56;81.03;99690.03;5051837;28;20195;-68
2023/07/31 11:13:07;;;;;;;8.35;1.75;;;;;;;30.68;80.10;99692.66;5051784;28;20706;-76
2023/07/31 11:15:34;;;;;;;6.40;1.52;;;;;;;30.48;81.93;99685.25;5051877;28;20203;-69
2023/07/31 11:18:03;;;;;;;10.73;2.20;;;;;;;30.97;79.34;99688.69;5051568;28;20206;-69
2023/07/31 11:20:31;;;;;;;9.75;1.98;;;;;;;31.38;78.74;99688.25;5051338;28;20226;-75
2023/07/31 11:23:01;;;;;;;5.88;1.58;;;;;;;30.74;78.47;99653.88;5051448;28;20646;-70